CheckWX is a tool to help pilots better visualize weather data.  It is not intended as a substitute for an official pre-flight weather briefing.

03:02:12 UTC

KPEA METAR
Pella Municipal Airport
Pella, Iowa, USA
Current

27 mins ago

KPEA 230235Z AUTO 01003KT 10SM CLR 19/14 A3020 RMK AO2 T01850142
Observed
Jul-23 @ 02:35 UTC
Wind
  • 010° at 3 KTS
Visibility
10 SM
Flight Rules
VFR
Cloud Levels
  • Clear skies
Temperature
19°C / 66°F
Dewpoint
14°C / 57°F
Humidity
73%
Altimeter
30.2" Hg
Pressure
1022.72 hPa
Previous

47 mins ago

KPEA 230215Z AUTO 36004KT 10SM CLR 19/14 A3019 RMK AO2 T01930140
Observed
Jul-23 @ 02:15 UTC
Wind
  • 360° at 4 KTS
Visibility
10 SM
Flight Rules
VFR
Cloud Levels
  • Clear skies
Temperature
19°C / 66°F
Dewpoint
14°C / 57°F
Humidity
73%
Altimeter
30.19" Hg
Pressure
1022.32 hPa
Previous

1 hour ago

KPEA 230155Z AUTO 36004KT 10SM CLR 20/14 A3019 RMK AO2 T01990141
Observed
Jul-23 @ 01:55 UTC
Wind
  • 360° at 4 KTS
Visibility
10 SM
Flight Rules
VFR
Cloud Levels
  • Clear skies
Temperature
20°C / 68°F
Dewpoint
14°C / 57°F
Humidity
69%
Altimeter
30.19" Hg
Pressure
1022.32 hPa